logo dgac
Viernes 12 de Abril del 2024
Buscar por aerodromo o helipuerto
Ingrese nombre de aeródromo, localidad o designador OACI:
TAF: TAF SCFM 121002Z 1212/1300 24018KT 9999 FEW020 TN06/1300Z TX12/1218Z TEMPO 1218/1222 15009KT BECMG 1222/1300 34012KT SCT040
TAF del 12/04/2024 a las 10:02 UTC
Para mayor información visite www.meteochile.gob.cl
Período de validez: desde el 12 a las 12:00 UTC hasta el 13 a las 00:00 UTC
Viento: dirección 240 grados, velocidad 18 nudos
Visibilidad: 10 km o más
Nubes: Escasa nubosidad a 2000 pies sobre el nivel del aeródromo
Temperatura mínima: 6ºC el 13 a las 00:00 UTC
Temperatura máxima: 12ºC el 12 a las 18:00 UTC
Se espera en forma temporal entre las 18:00 UTC del 12 y las 22:00 UTC del 12:
Viento: dirección 150 grados, velocidad 9 nudos
Se espera un cambio entre las 22:00 UTC del 12 y las 00:00 UTC del 13, :
Viento: dirección 340 grados, velocidad 12 nudos
Nubes: Nubosidad parcial a 4000 pies sobre el nivel del aeródromo